ESKM

Mora Airport

Sweden
METAR ESKM 140020Z AUTO VRB02KT 9999 OVC003/// M10/M11 Q1034
Observed Flight Rules
Dec-14 @ 00:20 UTC (24 minutes ago) Instrument Flight Rules
Wind Visibility Clouds
Variable at 2 knots 10,000+ meters
  • Overcast at 300' AGL
Temperatures Readings
Current -10°C / 14°F
Dewpoint -11°C / 12°F
Humidity 92%
Altimeter 30.53" Hg
Pressure 1034 hPa
Elevation 193
METAR ESKM 140020Z AUTO VRB02KT 9999 OVC003/// M10/M11 Q1034
Observed Flight Rules
Dec-14 @ 00:20 UTC
(24 minutes ago)
LIFR
Wind Visibility
Variable at 2 knots 10,000+ meters
Clouds
  • Overcast at 300' AGL
Temperature Dewpoint
-10°C / 14°F -11°C / 12°F
Humidity Altimeter Pressure
92% 30.53" Hg 1034 hPa